createdAt,value
2023-05-20T00:00:30.452Z,36.29
2023-05-20T00:01:01.938Z,36.18
2023-05-20T00:01:33.390Z,36.22
2023-05-20T00:02:04.839Z,36.15
2023-05-20T00:02:36.538Z,35.96
2023-05-20T00:03:08.374Z,35.84
2023-05-20T00:03:40.056Z,35.94
2023-05-20T00:04:11.860Z,36.06
2023-05-20T00:04:43.626Z,35.97
2023-05-20T00:05:15.155Z,35.84
2023-05-20T00:05:46.624Z,35.87
2023-05-20T00:06:18.188Z,35.73
2023-05-20T00:06:49.666Z,35.98
2023-05-20T00:07:21.164Z,35.66
2023-05-20T00:07:52.676Z,35.75
2023-05-20T00:08:24.186Z,35.85
2023-05-20T00:08:55.625Z,35.74
2023-05-20T00:09:27.106Z,35.87
2023-05-20T00:09:58.570Z,35.71
2023-05-20T00:10:30.087Z,35.73
2023-05-20T00:11:01.583Z,35.69
2023-05-20T00:11:33.086Z,35.66
2023-05-20T00:12:04.613Z,35.63
2023-05-20T00:12:36.157Z,35.57
2023-05-20T00:13:07.699Z,35.55
2023-05-20T00:13:39.316Z,35.67
2023-05-20T00:14:10.854Z,35.42
2023-05-20T00:14:42.362Z,35.63
2023-05-20T00:15:13.865Z,35.57
2023-05-20T00:15:45.316Z,35.50
2023-05-20T00:16:16.799Z,35.53
2023-05-20T00:16:48.327Z,35.50
2023-05-20T00:17:19.790Z,35.54
2023-05-20T00:17:51.360Z,35.42
2023-05-20T00:18:22.873Z,35.69
2023-05-20T00:18:54.420Z,35.42
2023-05-20T00:19:25.920Z,35.50
2023-05-20T00:19:57.422Z,35.47
2023-05-20T00:20:28.861Z,35.55
2023-05-20T00:21:00.375Z,35.42
2023-05-20T00:21:31.934Z,35.42
2023-05-20T00:22:03.415Z,35.35
2023-05-20T00:22:34.950Z,35.54
2023-05-20T00:23:06.473Z,35.56
2023-05-20T00:23:38.024Z,35.47
2023-05-20T00:24:09.561Z,35.55
2023-05-20T00:24:41.108Z,35.65
2023-05-20T00:25:12.594Z,35.54
2023-05-20T00:25:45.356Z,35.49
2023-05-20T00:26:16.891Z,35.63
2023-05-20T00:26:48.363Z,35.57
2023-05-20T00:27:19.892Z,35.53
2023-05-20T00:27:51.323Z,35.54
2023-05-20T00:28:22.770Z,35.42
2023-05-20T00:28:54.233Z,35.47
2023-05-20T00:29:25.841Z,35.63
2023-05-20T00:29:57.330Z,35.60
2023-05-20T00:30:28.843Z,35.49
2023-05-20T00:31:00.341Z,35.45
2023-05-20T00:31:31.915Z,35.60
2023-05-20T00:32:03.439Z,35.49
2023-05-20T00:32:34.989Z,35.46
2023-05-20T00:33:06.639Z,35.44
2023-05-20T00:33:38.252Z,35.48
2023-05-20T00:34:09.777Z,35.44
2023-05-20T00:34:41.322Z,35.66
2023-05-20T00:35:12.793Z,35.58
2023-05-20T00:35:44.412Z,35.68
2023-05-20T00:36:15.912Z,35.49
2023-05-20T00:36:47.405Z,35.55
2023-05-20T00:37:18.871Z,35.48
2023-05-20T00:37:50.422Z,35.64
2023-05-20T00:38:21.868Z,35.61
2023-05-20T00:38:53.355Z,35.39
2023-05-20T00:39:24.849Z,35.55
2023-05-20T00:39:56.450Z,35.39
2023-05-20T00:40:27.968Z,35.46
2023-05-20T00:40:59.410Z,35.47
2023-05-20T00:41:30.859Z,35.40
2023-05-20T00:42:02.280Z,35.42
2023-05-20T00:42:33.767Z,35.38
2023-05-20T00:43:05.222Z,35.27
2023-05-20T00:43:36.707Z,35.43
2023-05-20T00:44:08.113Z,35.53
2023-05-20T00:44:39.552Z,35.51
2023-05-20T00:45:11.136Z,35.50
2023-05-20T00:45:42.632Z,35.62
2023-05-20T00:46:14.170Z,35.49
2023-05-20T00:46:45.663Z,35.66
2023-05-20T00:47:17.142Z,35.51
2023-05-20T00:47:48.678Z,35.55
2023-05-20T00:48:20.250Z,35.55
2023-05-20T00:48:51.728Z,35.50
2023-05-20T00:49:23.190Z,35.43
2023-05-20T00:49:54.622Z,35.45
2023-05-20T00:50:26.125Z,35.51
2023-05-20T00:50:57.601Z,35.47
2023-05-20T00:51:32.187Z,35.49
2023-05-20T00:52:03.655Z,35.46
2023-05-20T00:52:35.174Z,35.55
2023-05-20T00:53:06.659Z,35.56
2023-05-20T00:53:38.257Z,35.41
2023-05-20T00:54:09.738Z,35.41
2023-05-20T00:54:41.302Z,35.53
2023-05-20T00:55:12.776Z,35.54
2023-05-20T00:55:44.373Z,35.50
2023-05-20T00:56:15.825Z,35.63
2023-05-20T00:56:47.455Z,35.41
2023-05-20T00:57:18.884Z,35.69
2023-05-20T00:57:50.436Z,35.46
2023-05-20T00:58:21.958Z,35.44
2023-05-20T00:58:53.475Z,35.27
2023-05-20T00:59:24.895Z,35.39
2023-05-20T00:59:56.389Z,35.38
2023-05-20T01:00:27.926Z,35.42
2023-05-20T01:00:59.833Z,35.46
2023-05-20T01:01:31.395Z,35.36
2023-05-20T01:02:02.956Z,35.48
2023-05-20T01:02:34.597Z,35.42
2023-05-20T01:03:06.225Z,35.45
2023-05-20T01:03:37.966Z,35.39
2023-05-20T01:04:09.534Z,35.53
2023-05-20T01:04:40.976Z,35.38
2023-05-20T01:05:12.484Z,35.41
2023-05-20T01:05:43.969Z,35.40
2023-05-20T01:06:15.484Z,35.56
2023-05-20T01:06:46.959Z,35.31
2023-05-20T01:07:18.470Z,35.35
2023-05-20T01:07:50.000Z,35.49
2023-05-20T01:08:21.502Z,35.36
2023-05-20T01:08:53.026Z,35.33
2023-05-20T01:09:24.502Z,35.48
2023-05-20T01:09:56.144Z,35.38
2023-05-20T01:10:27.880Z,35.51
2023-05-20T01:10:59.426Z,35.41
2023-05-20T01:11:30.888Z,35.55
2023-05-20T01:12:02.452Z,35.40
2023-05-20T01:12:33.883Z,35.38
2023-05-20T01:13:05.380Z,35.32
2023-05-20T01:13:36.834Z,35.38
2023-05-20T01:14:08.291Z,35.49
2023-05-20T01:14:39.791Z,35.37
2023-05-20T01:15:11.217Z,35.31
2023-05-20T01:15:42.843Z,35.46
2023-05-20T01:16:14.445Z,35.40
2023-05-20T01:16:45.905Z,35.23
2023-05-20T01:17:17.348Z,35.51
2023-05-20T01:17:48.811Z,35.43
2023-05-20T01:18:20.301Z,35.43
2023-05-20T01:18:51.765Z,35.39
2023-05-20T01:19:23.306Z,35.56
2023-05-20T01:19:54.850Z,35.56
2023-05-20T01:20:26.392Z,35.47
2023-05-20T01:20:57.891Z,35.42
2023-05-20T01:21:29.380Z,35.33
2023-05-20T01:22:00.858Z,35.48
2023-05-20T01:22:32.332Z,35.38
2023-05-20T01:23:03.807Z,35.54
2023-05-20T01:23:35.274Z,35.53
2023-05-20T01:24:06.733Z,35.32
2023-05-20T01:24:38.206Z,35.41
2023-05-20T01:25:09.665Z,35.43
2023-05-20T01:25:41.121Z,35.50
2023-05-20T01:26:12.647Z,35.56
2023-05-20T01:26:44.124Z,35.72
2023-05-20T01:27:15.597Z,35.56
2023-05-20T01:27:47.143Z,35.59
2023-05-20T01:28:18.642Z,35.58
2023-05-20T01:28:50.203Z,35.55
2023-05-20T01:29:21.669Z,35.36
2023-05-20T01:29:53.193Z,35.61
2023-05-20T01:30:24.653Z,35.58
2023-05-20T01:30:56.188Z,35.46
2023-05-20T01:31:27.780Z,35.37
2023-05-20T01:31:59.369Z,35.45
2023-05-20T01:32:33.569Z,35.51
2023-05-20T01:33:05.229Z,35.45
2023-05-20T01:33:36.873Z,35.38
2023-05-20T01:34:08.488Z,35.46
2023-05-20T01:34:40.006Z,35.45
2023-05-20T01:35:11.566Z,35.49
2023-05-20T01:35:43.053Z,35.55
2023-05-20T01:36:14.653Z,35.35
2023-05-20T01:36:46.157Z,35.45
2023-05-20T01:37:17.694Z,35.45
2023-05-20T01:37:49.145Z,35.50
2023-05-20T01:38:20.776Z,35.51
2023-05-20T01:38:52.239Z,35.44
2023-05-20T01:39:23.761Z,35.51
2023-05-20T01:39:55.212Z,35.47
2023-05-20T01:40:26.749Z,35.28
2023-05-20T01:40:58.266Z,35.53
2023-05-20T01:41:29.769Z,35.44
2023-05-20T01:42:01.379Z,35.54
2023-05-20T01:42:32.901Z,35.49
2023-05-20T01:43:04.411Z,35.58
2023-05-20T01:43:35.895Z,35.40
2023-05-20T01:44:07.348Z,35.49
2023-05-20T01:44:38.938Z,35.46
2023-05-20T01:45:10.411Z,35.58
2023-05-20T01:45:42.101Z,35.64
2023-05-20T01:46:13.685Z,35.55
2023-05-20T01:46:45.255Z,35.50
2023-05-20T01:47:48.335Z,35.42
2023-05-20T01:48:19.849Z,35.67
2023-05-20T01:48:51.287Z,35.54
2023-05-20T01:49:22.790Z,35.53
2023-05-20T01:49:54.339Z,35.46
2023-05-20T01:50:25.817Z,35.54
2023-05-20T01:50:57.385Z,35.42
2023-05-20T01:51:28.830Z,35.48
2023-05-20T01:52:00.309Z,35.68
2023-05-20T01:52:31.816Z,35.58
2023-05-20T01:53:03.332Z,35.57
2023-05-20T01:53:34.844Z,35.64
2023-05-20T01:54:06.358Z,35.50
2023-05-20T01:54:37.807Z,35.37
2023-05-20T01:55:09.312Z,35.47
2023-05-20T01:55:40.769Z,35.53
2023-05-20T01:56:14.913Z,35.39
2023-05-20T01:56:46.342Z,35.45
2023-05-20T01:57:17.758Z,35.46
2023-05-20T01:57:49.263Z,35.58
2023-05-20T01:58:20.680Z,35.23
2023-05-20T01:58:52.111Z,35.46
2023-05-20T01:59:23.569Z,35.31
2023-05-20T01:59:55.062Z,35.42
2023-05-20T02:00:26.570Z,35.43
2023-05-20T02:00:58.029Z,35.36
2023-05-20T02:01:29.666Z,35.59
2023-05-20T02:02:01.287Z,35.54
2023-05-20T02:02:32.939Z,35.50
2023-05-20T02:03:04.608Z,35.39
2023-05-20T02:03:36.064Z,35.32
2023-05-20T02:04:07.570Z,35.51
2023-05-20T02:04:39.055Z,35.53
2023-05-20T02:05:10.525Z,35.44
2023-05-20T02:05:42.039Z,35.58
2023-05-20T02:06:45.064Z,35.59
2023-05-20T02:07:16.549Z,35.59
2023-05-20T02:07:48.156Z,35.66
2023-05-20T02:08:19.672Z,35.60
2023-05-20T02:08:51.206Z,35.60
2023-05-20T02:09:22.648Z,35.46
2023-05-20T02:09:54.226Z,35.48
2023-05-20T02:10:25.759Z,35.46
2023-05-20T02:10:57.411Z,35.67
2023-05-20T02:11:29.240Z,35.66
2023-05-20T02:12:00.787Z,35.57
2023-05-20T02:12:35.214Z,35.63
2023-05-20T02:13:06.669Z,35.44
2023-05-20T02:13:38.227Z,35.74
2023-05-20T02:14:12.649Z,35.65
2023-05-20T02:14:44.088Z,35.61
2023-05-20T02:15:15.548Z,35.55
2023-05-20T02:15:47.023Z,35.53
2023-05-20T02:16:18.516Z,35.38
2023-05-20T02:16:49.990Z,35.38
2023-05-20T02:17:21.554Z,35.57
2023-05-20T02:18:24.470Z,35.44
2023-05-20T02:18:55.999Z,35.51
2023-05-20T02:19:27.564Z,35.29
2023-05-20T02:19:59.057Z,35.33
2023-05-20T02:20:30.576Z,35.34
2023-05-20T02:21:01.996Z,35.46
2023-05-20T02:21:33.452Z,35.62
2023-05-20T02:22:05.020Z,35.29
2023-05-20T02:22:36.550Z,35.29
2023-05-20T02:23:08.045Z,35.46
2023-05-20T02:23:39.562Z,35.46
2023-05-20T02:24:11.066Z,35.56
2023-05-20T02:24:42.575Z,35.45
2023-05-20T02:25:14.115Z,35.46
2023-05-20T02:25:45.545Z,35.42
2023-05-20T02:26:17.041Z,35.42
2023-05-20T02:26:48.487Z,35.62
2023-05-20T02:27:19.964Z,35.57
2023-05-20T02:27:51.417Z,35.79
2023-05-20T02:28:22.877Z,35.55
2023-05-20T02:28:54.334Z,35.65
2023-05-20T02:29:25.900Z,35.66
2023-05-20T02:29:57.383Z,35.66
2023-05-20T02:30:28.850Z,35.60
2023-05-20T02:31:00.272Z,35.52
2023-05-20T02:31:31.775Z,35.54
2023-05-20T02:32:03.245Z,35.49
2023-05-20T02:32:34.677Z,35.49
2023-05-20T02:33:06.192Z,35.39
2023-05-20T02:33:37.716Z,35.31
2023-05-20T02:34:09.222Z,35.35
2023-05-20T02:34:40.733Z,35.33
2023-05-20T02:35:12.185Z,35.38
2023-05-20T02:35:43.689Z,35.46
2023-05-20T02:36:15.134Z,35.41
2023-05-20T02:36:46.659Z,35.35
2023-05-20T02:37:18.128Z,35.37
2023-05-20T02:37:49.592Z,35.22
2023-05-20T02:38:21.073Z,35.49
2023-05-20T02:38:52.547Z,35.50
2023-05-20T02:39:24.031Z,35.50
2023-05-20T02:39:55.526Z,35.42
2023-05-20T02:40:26.983Z,35.34
2023-05-20T02:40:58.443Z,35.31
2023-05-20T02:41:29.927Z,35.32
2023-05-20T02:42:01.353Z,35.42
2023-05-20T02:42:32.817Z,35.32
2023-05-20T02:43:04.281Z,35.42
2023-05-20T02:43:37.988Z,35.39
2023-05-20T02:44:09.529Z,35.44
2023-05-20T02:44:40.997Z,35.47
2023-05-20T02:45:12.496Z,35.69
2023-05-20T02:45:44.214Z,35.91
2023-05-20T02:46:16.121Z,35.74
2023-05-20T02:46:50.599Z,35.76
2023-05-20T02:47:22.051Z,35.60
2023-05-20T02:47:53.605Z,35.63
2023-05-20T02:48:25.063Z,35.85
2023-05-20T02:48:56.550Z,35.65
2023-05-20T02:49:28.076Z,35.59
2023-05-20T02:49:59.665Z,35.60
2023-05-20T02:50:31.177Z,35.81
2023-05-20T02:51:02.678Z,35.42
2023-05-20T02:51:34.160Z,35.63
2023-05-20T02:52:05.671Z,35.65
2023-05-20T02:52:39.698Z,35.47
2023-05-20T02:53:11.132Z,35.61
2023-05-20T02:53:42.657Z,35.50
2023-05-20T02:54:14.050Z,35.58
2023-05-20T02:54:45.570Z,35.43
2023-05-20T02:55:17.096Z,35.49
2023-05-20T02:55:48.682Z,35.53
2023-05-20T02:56:20.133Z,35.63
2023-05-20T02:56:53.777Z,35.53
2023-05-20T02:57:25.819Z,35.53
2023-05-20T02:57:57.289Z,35.45
2023-05-20T02:58:28.771Z,35.54
2023-05-20T02:59:00.185Z,35.67
2023-05-20T02:59:31.660Z,35.51
2023-05-20T03:00:03.239Z,35.49
2023-05-20T03:00:34.701Z,35.55
2023-05-20T03:01:06.168Z,35.46
2023-05-20T03:01:37.735Z,35.42
2023-05-20T03:02:13.035Z,35.59
2023-05-20T03:02:44.533Z,35.42
2023-05-20T03:03:16.015Z,35.44
2023-05-20T03:03:47.461Z,35.39
2023-05-20T03:04:18.942Z,35.43
2023-05-20T03:04:50.487Z,35.43
2023-05-20T03:05:21.965Z,35.38
2023-05-20T03:05:53.434Z,35.41
2023-05-20T03:06:24.992Z,35.42
2023-05-20T03:06:56.458Z,35.34
2023-05-20T03:07:27.880Z,35.27
2023-05-20T03:07:59.369Z,35.44
2023-05-20T03:08:30.831Z,35.36
2023-05-20T03:09:02.461Z,35.39
2023-05-20T03:09:33.936Z,35.52
2023-05-20T03:10:05.449Z,35.42
2023-05-20T03:10:36.896Z,35.25
2023-05-20T03:11:08.325Z,35.41
2023-05-20T03:11:39.853Z,35.27
2023-05-20T03:12:11.328Z,35.38
2023-05-20T03:12:42.785Z,35.39
2023-05-20T03:13:14.250Z,35.40
2023-05-20T03:13:45.716Z,35.23
2023-05-20T03:14:17.174Z,35.39
2023-05-20T03:14:48.661Z,35.39
2023-05-20T03:15:20.140Z,35.38
2023-05-20T03:15:51.648Z,35.44
2023-05-20T03:16:23.219Z,35.35
2023-05-20T03:16:54.762Z,35.30
2023-05-20T03:17:26.237Z,35.36
2023-05-20T03:17:57.785Z,35.53
2023-05-20T03:18:29.384Z,35.50
2023-05-20T03:19:00.882Z,35.35
2023-05-20T03:19:32.400Z,35.34
2023-05-20T03:20:03.892Z,35.32
2023-05-20T03:20:35.364Z,35.52
2023-05-20T03:21:06.998Z,35.45
2023-05-20T03:21:38.447Z,35.49
2023-05-20T03:22:09.943Z,35.43
2023-05-20T03:22:41.352Z,35.41
2023-05-20T03:23:12.805Z,35.44
2023-05-20T03:23:44.380Z,35.23
2023-05-20T03:24:16.007Z,35.29
2023-05-20T03:24:47.438Z,35.40
2023-05-20T03:25:18.883Z,35.39
2023-05-20T03:25:50.405Z,35.55
2023-05-20T03:26:21.854Z,35.34
2023-05-20T03:26:53.384Z,35.46
2023-05-20T03:27:24.908Z,35.41
2023-05-20T03:27:56.383Z,35.34
2023-05-20T03:28:27.828Z,35.37
2023-05-20T03:28:59.276Z,35.43
2023-05-20T03:29:30.747Z,35.35
2023-05-20T03:30:02.222Z,35.25
2023-05-20T03:30:33.656Z,35.26
2023-05-20T03:31:05.135Z,35.22
2023-05-20T03:31:36.640Z,35.40
2023-05-20T03:32:10.652Z,35.26
2023-05-20T03:32:42.480Z,35.42
2023-05-20T03:33:14.092Z,35.39
2023-05-20T03:33:45.514Z,35.25
2023-05-20T03:34:16.978Z,35.32
2023-05-20T03:34:48.424Z,35.49
2023-05-20T03:35:19.926Z,35.31
2023-05-20T03:35:51.386Z,35.52
2023-05-20T03:36:22.911Z,35.42
2023-05-20T03:36:54.403Z,35.16
2023-05-20T03:37:25.966Z,35.27
2023-05-20T03:37:57.476Z,35.36
2023-05-20T03:38:28.956Z,35.43
2023-05-20T03:39:00.362Z,35.33
2023-05-20T03:39:31.852Z,35.43
2023-05-20T03:40:03.352Z,35.52
2023-05-20T03:40:34.790Z,35.37
2023-05-20T03:41:06.333Z,35.48
2023-05-20T03:41:37.784Z,35.41
2023-05-20T03:42:09.464Z,35.56
2023-05-20T03:42:40.939Z,35.39
2023-05-20T03:43:12.499Z,35.39
2023-05-20T03:43:43.921Z,35.50
2023-05-20T03:44:15.412Z,35.34
2023-05-20T03:44:46.859Z,35.50
2023-05-20T03:45:18.373Z,35.24
2023-05-20T03:45:49.791Z,35.39
2023-05-20T03:46:21.257Z,35.27
2023-05-20T03:46:52.847Z,35.35
2023-05-20T03:47:24.479Z,35.37
2023-05-20T03:47:56.056Z,35.29
2023-05-20T03:48:27.745Z,35.35
2023-05-20T03:48:59.187Z,35.35
2023-05-20T03:49:30.684Z,35.18
2023-05-20T03:50:02.233Z,35.25
2023-05-20T03:50:33.761Z,35.26
2023-05-20T03:51:05.230Z,35.37
2023-05-20T03:51:36.711Z,35.37
2023-05-20T03:52:08.133Z,35.33
2023-05-20T03:52:39.617Z,35.32
2023-05-20T03:53:11.063Z,35.40
2023-05-20T03:53:42.570Z,35.32
2023-05-20T03:54:14.046Z,35.26
2023-05-20T03:54:45.492Z,35.29
2023-05-20T03:55:16.910Z,35.38
2023-05-20T03:55:48.351Z,35.16
2023-05-20T03:56:19.830Z,35.23
2023-05-20T03:56:51.291Z,35.31
2023-05-20T03:57:22.773Z,35.35
2023-05-20T03:57:54.252Z,35.43
2023-05-20T03:58:25.743Z,35.12
2023-05-20T03:58:57.232Z,35.25
2023-05-20T03:59:28.655Z,35.25
2023-05-20T04:00:00.169Z,35.35
2023-05-20T04:00:31.678Z,35.30
2023-05-20T04:01:03.229Z,35.26
2023-05-20T04:01:34.694Z,35.18
2023-05-20T04:02:06.272Z,35.44
2023-05-20T04:02:37.831Z,35.45
2023-05-20T04:03:09.624Z,35.41
2023-05-20T04:03:41.264Z,35.49
2023-05-20T04:04:12.977Z,35.46
2023-05-20T04:04:44.536Z,35.33
2023-05-20T04:05:15.985Z,35.33
2023-05-20T04:05:47.456Z,35.32
2023-05-20T04:06:18.937Z,35.35
2023-05-20T04:06:50.404Z,35.28
2023-05-20T04:07:21.915Z,35.32
2023-05-20T04:07:53.355Z,35.28
2023-05-20T04:08:24.847Z,35.34
2023-05-20T04:08:56.335Z,35.35
2023-05-20T04:09:27.903Z,35.35
2023-05-20T04:09:59.467Z,35.36
2023-05-20T04:10:30.984Z,35.35
2023-05-20T04:11:02.468Z,35.34
2023-05-20T04:11:33.965Z,35.40
2023-05-20T04:12:05.487Z,35.39
2023-05-20T04:12:37.017Z,35.36
2023-05-20T04:13:08.519Z,35.35
2023-05-20T04:13:40.106Z,35.36
2023-05-20T04:14:11.602Z,35.40
2023-05-20T04:14:43.121Z,35.43
2023-05-20T04:15:14.565Z,35.37
2023-05-20T04:15:46.049Z,35.21
2023-05-20T04:16:17.528Z,35.24
2023-05-20T04:16:49.144Z,35.33
2023-05-20T04:17:20.671Z,35.30
2023-05-20T04:17:52.166Z,35.39
2023-05-20T04:18:23.704Z,35.19
2023-05-20T04:18:55.239Z,35.39
2023-05-20T04:19:26.743Z,35.30
2023-05-20T04:19:58.308Z,35.27
2023-05-20T04:20:29.792Z,35.40
2023-05-20T04:21:01.319Z,35.27
2023-05-20T04:21:32.778Z,35.26
2023-05-20T04:22:04.267Z,35.46
2023-05-20T04:22:35.737Z,35.42
2023-05-20T04:23:07.182Z,35.36
2023-05-20T04:23:38.658Z,35.39
2023-05-20T04:24:10.154Z,35.37
2023-05-20T04:24:41.715Z,35.50
2023-05-20T04:25:13.132Z,35.37
2023-05-20T04:25:44.810Z,35.39
2023-05-20T04:26:16.485Z,35.31
2023-05-20T04:26:47.993Z,35.34
2023-05-20T04:27:19.457Z,35.42
2023-05-20T04:27:50.992Z,35.23
2023-05-20T04:28:22.462Z,35.25
2023-05-20T04:28:53.971Z,35.45
2023-05-20T04:29:25.572Z,35.42
2023-05-20T04:29:57.182Z,35.37
2023-05-20T04:30:28.813Z,35.49
2023-05-20T04:31:00.354Z,35.37
2023-05-20T04:31:32.089Z,35.48
2023-05-20T04:32:03.694Z,35.35
2023-05-20T04:32:35.430Z,35.50
2023-05-20T04:33:07.040Z,35.54
2023-05-20T04:33:38.583Z,35.41
2023-05-20T04:34:10.065Z,35.39
2023-05-20T04:34:41.556Z,35.40
2023-05-20T04:35:12.979Z,35.46
2023-05-20T04:35:44.410Z,35.38
2023-05-20T04:36:15.884Z,35.39
2023-05-20T04:36:47.368Z,35.42
2023-05-20T04:37:18.828Z,35.67
2023-05-20T04:37:50.342Z,35.41
2023-05-20T04:38:21.837Z,35.48
2023-05-20T04:38:53.331Z,35.46
2023-05-20T04:39:24.867Z,35.46
2023-05-20T04:39:56.352Z,35.43
2023-05-20T04:40:27.804Z,35.45
2023-05-20T04:40:59.265Z,35.52
2023-05-20T04:41:30.733Z,35.43
2023-05-20T04:42:02.297Z,35.48
2023-05-20T04:42:33.840Z,35.40
2023-05-20T04:43:05.445Z,35.48
2023-05-20T04:43:36.934Z,35.38
2023-05-20T04:44:08.552Z,35.42
2023-05-20T04:44:42.220Z,35.39
2023-05-20T04:45:13.896Z,35.52
2023-05-20T04:45:45.354Z,35.57
2023-05-20T04:46:16.931Z,35.49
2023-05-20T04:46:48.427Z,35.41
2023-05-20T04:47:19.887Z,35.46
2023-05-20T04:47:51.394Z,35.50
2023-05-20T04:48:22.845Z,35.46
2023-05-20T04:48:54.300Z,35.46
2023-05-20T04:49:25.783Z,35.59
2023-05-20T04:49:57.247Z,35.61
2023-05-20T04:50:28.755Z,35.63
2023-05-20T04:51:00.221Z,35.52
2023-05-20T04:51:31.673Z,35.56
2023-05-20T04:52:03.172Z,35.51
2023-05-20T04:52:34.637Z,35.41
2023-05-20T04:53:06.141Z,35.48
2023-05-20T04:53:37.654Z,35.51
2023-05-20T04:54:09.108Z,35.59
2023-05-20T04:54:40.582Z,35.64
2023-05-20T04:55:12.110Z,35.54
2023-05-20T04:55:43.633Z,35.53
2023-05-20T04:56:15.134Z,35.48
2023-05-20T04:56:46.565Z,35.55
2023-05-20T04:57:18.094Z,35.59
2023-05-20T04:57:49.602Z,35.56
2023-05-20T04:58:21.065Z,35.50
2023-05-20T04:58:52.536Z,35.46
2023-05-20T04:59:23.963Z,35.46
2023-05-20T04:59:55.467Z,35.65
2023-05-20T05:00:26.963Z,35.63
2023-05-20T05:00:58.539Z,35.68
2023-05-20T05:01:30.040Z,35.58
2023-05-20T05:02:01.635Z,35.62
2023-05-20T05:02:33.191Z,35.45
2023-05-20T05:03:04.841Z,35.67
2023-05-20T05:03:36.890Z,35.48
2023-05-20T05:04:08.575Z,35.58
2023-05-20T05:04:40.048Z,35.65
2023-05-20T05:05:11.545Z,35.59
2023-05-20T05:05:43.006Z,35.67
2023-05-20T05:06:17.264Z,35.67
2023-05-20T05:06:51.554Z,35.63
2023-05-20T05:07:23.115Z,35.76
2023-05-20T05:07:54.578Z,35.62
2023-05-20T05:08:26.178Z,35.55
2023-05-20T05:08:57.731Z,35.64
2023-05-20T05:09:29.211Z,35.67
2023-05-20T05:10:00.663Z,35.72
2023-05-20T05:10:32.262Z,35.71
2023-05-20T05:11:03.780Z,35.74
2023-05-20T05:11:35.885Z,35.74
2023-05-20T05:12:07.498Z,35.85
2023-05-20T05:12:42.116Z,35.67
2023-05-20T05:13:16.425Z,35.76
2023-05-20T05:13:47.880Z,35.95
2023-05-20T05:14:19.297Z,35.85
2023-05-20T05:14:50.777Z,35.83
2023-05-20T05:15:22.251Z,35.78
2023-05-20T05:15:53.789Z,35.89
2023-05-20T05:16:25.418Z,35.87
2023-05-20T05:16:56.919Z,35.93
2023-05-20T05:17:28.429Z,35.84
2023-05-20T05:17:59.980Z,35.90
2023-05-20T05:18:31.551Z,35.88
2023-05-20T05:19:03.053Z,35.88
2023-05-20T05:19:34.590Z,35.94
2023-05-20T05:20:06.121Z,35.76
2023-05-20T05:20:37.631Z,36.10
2023-05-20T05:21:09.141Z,35.93
2023-05-20T05:21:40.635Z,35.92
2023-05-20T05:22:12.078Z,35.95
2023-05-20T05:22:43.582Z,35.85
2023-05-20T05:23:15.178Z,35.88
2023-05-20T05:23:46.637Z,35.87
2023-05-20T05:24:18.065Z,35.87
2023-05-20T05:24:49.579Z,35.73
2023-05-20T05:25:20.993Z,35.83
2023-05-20T05:25:52.493Z,35.84
2023-05-20T05:26:23.978Z,35.89
2023-05-20T05:26:55.459Z,35.98
2023-05-20T05:27:27.017Z,35.93
2023-05-20T05:27:58.477Z,35.93
2023-05-20T05:28:30.132Z,35.90
2023-05-20T05:29:01.586Z,35.81
2023-05-20T05:29:33.079Z,35.78
2023-05-20T05:30:04.557Z,35.73
2023-05-20T05:30:36.045Z,35.78
2023-05-20T05:31:07.489Z,35.89
2023-05-20T05:31:38.958Z,36.22
2023-05-20T05:32:10.464Z,36.00
2023-05-20T05:32:42.052Z,36.01
2023-05-20T05:33:13.678Z,35.92
2023-05-20T05:33:45.303Z,35.90
2023-05-20T05:34:16.924Z,35.98
2023-05-20T05:34:48.453Z,35.90
2023-05-20T05:35:19.886Z,35.87
2023-05-20T05:35:51.420Z,35.86
2023-05-20T05:36:22.874Z,35.83
2023-05-20T05:36:54.347Z,35.85
2023-05-20T05:37:25.766Z,35.94
2023-05-20T05:37:57.210Z,35.93
2023-05-20T05:38:28.657Z,36.11
2023-05-20T05:39:00.180Z,36.02
2023-05-20T05:39:31.677Z,35.85
2023-05-20T05:40:03.131Z,35.96
2023-05-20T05:40:34.605Z,36.00
2023-05-20T05:41:06.064Z,35.96
2023-05-20T05:41:37.543Z,36.06
2023-05-20T05:42:08.953Z,36.08
2023-05-20T05:42:40.377Z,36.10
2023-05-20T05:43:11.858Z,35.95
2023-05-20T05:43:43.286Z,36.02
2023-05-20T05:44:14.885Z,36.05
2023-05-20T05:44:46.355Z,36.04
2023-05-20T05:45:17.872Z,36.11
2023-05-20T05:45:49.386Z,36.06
2023-05-20T05:46:20.914Z,35.95
2023-05-20T05:46:52.409Z,36.01
2023-05-20T05:47:23.888Z,36.04
2023-05-20T05:47:55.393Z,36.02
2023-05-20T05:48:26.950Z,35.99
2023-05-20T05:48:58.409Z,36.07
2023-05-20T05:49:29.968Z,36.13
2023-05-20T05:50:01.457Z,36.12
2023-05-20T05:50:32.912Z,36.17
2023-05-20T05:51:04.440Z,36.16
2023-05-20T05:51:37.584Z,36.16
2023-05-20T05:52:10.377Z,35.98
2023-05-20T05:52:41.802Z,35.98
2023-05-20T05:53:13.333Z,36.08
2023-05-20T05:53:44.803Z,36.16
2023-05-20T05:54:16.345Z,35.93
2023-05-20T05:54:47.937Z,36.04
2023-05-20T05:55:19.433Z,36.19
2023-05-20T05:55:50.898Z,36.21
2023-05-20T05:56:22.410Z,36.05
2023-05-20T05:56:53.892Z,36.21
2023-05-20T05:57:25.514Z,36.06
2023-05-20T05:57:56.951Z,36.21
2023-05-20T05:58:28.455Z,36.07
2023-05-20T05:58:59.935Z,36.04
2023-05-20T05:59:31.416Z,36.13
2023-05-20T06:00:02.909Z,36.15
2023-05-20T06:00:34.487Z,36.08
2023-05-20T06:01:06.112Z,36.12
2023-05-20T06:01:37.718Z,36.10
2023-05-20T06:02:09.234Z,36.16
2023-05-20T06:02:41.006Z,36.28
2023-05-20T06:03:12.721Z,36.23
2023-05-20T06:03:44.398Z,36.20
2023-05-20T06:04:16.041Z,36.20
2023-05-20T06:04:47.499Z,36.17
2023-05-20T06:05:19.027Z,36.20
2023-05-20T06:05:50.520Z,36.14
2023-05-20T06:06:22.017Z,36.27
2023-05-20T06:06:53.501Z,36.18
2023-05-20T06:07:24.953Z,36.22
2023-05-20T06:07:56.423Z,36.26
2023-05-20T06:08:27.928Z,36.15
2023-05-20T06:08:59.409Z,36.25
2023-05-20T06:09:30.910Z,36.20
2023-05-20T06:10:02.365Z,36.24
2023-05-20T06:10:33.974Z,36.26
2023-05-20T06:11:05.435Z,36.14
2023-05-20T06:11:36.968Z,36.22
2023-05-20T06:12:08.465Z,36.22
2023-05-20T06:12:40.016Z,36.16
2023-05-20T06:13:11.443Z,36.11
2023-05-20T06:13:42.865Z,36.34
2023-05-20T06:14:14.428Z,36.44
2023-05-20T06:14:45.882Z,36.46
2023-05-20T06:15:17.399Z,36.28
2023-05-20T06:15:48.911Z,36.49
2023-05-20T06:16:20.437Z,36.25
2023-05-20T06:16:51.961Z,36.51
2023-05-20T06:17:26.067Z,36.64
2023-05-20T06:17:57.607Z,36.46
2023-05-20T06:18:29.197Z,36.43
2023-05-20T06:19:03.376Z,36.43
2023-05-20T06:19:35.333Z,36.36
2023-05-20T06:20:06.944Z,36.35
2023-05-20T06:20:38.546Z,36.48
2023-05-20T06:21:09.997Z,36.42
2023-05-20T06:21:41.521Z,36.27
2023-05-20T06:22:12.986Z,36.31
2023-05-20T06:22:44.442Z,36.39
2023-05-20T06:23:15.942Z,36.43
2023-05-20T06:23:47.389Z,36.23
2023-05-20T06:24:19.024Z,36.34
2023-05-20T06:24:50.503Z,36.36
2023-05-20T06:25:21.941Z,36.28
2023-05-20T06:25:53.441Z,36.25
2023-05-20T06:26:24.925Z,36.34
2023-05-20T06:26:56.413Z,36.32
2023-05-20T06:27:27.884Z,36.47
2023-05-20T06:27:59.324Z,36.23
2023-05-20T06:28:30.778Z,36.34
2023-05-20T06:29:02.207Z,36.41
2023-05-20T06:29:33.641Z,36.41
2023-05-20T06:30:05.121Z,36.31
2023-05-20T06:30:36.633Z,36.51
2023-05-20T06:31:08.192Z,36.40
2023-05-20T06:31:39.703Z,36.42
2023-05-20T06:32:11.316Z,36.48
2023-05-20T06:32:43.388Z,36.45
2023-05-20T06:33:14.887Z,36.47
2023-05-20T06:33:46.375Z,36.55
2023-05-20T06:34:17.851Z,36.34
2023-05-20T06:34:49.288Z,36.37
2023-05-20T06:35:20.759Z,36.59
2023-05-20T06:35:55.136Z,36.40
2023-05-20T06:36:26.612Z,36.37
2023-05-20T06:36:58.064Z,36.41
2023-05-20T06:37:29.540Z,36.44
2023-05-20T06:38:01.029Z,36.61
2023-05-20T06:38:32.611Z,36.62
2023-05-20T06:39:04.099Z,36.54
2023-05-20T06:39:35.589Z,36.59
2023-05-20T06:40:07.106Z,36.56
2023-05-20T06:40:38.669Z,36.55
2023-05-20T06:41:10.106Z,36.60
2023-05-20T06:41:41.583Z,36.52
2023-05-20T06:42:13.017Z,36.60
2023-05-20T06:42:44.557Z,36.64
2023-05-20T06:43:16.106Z,36.73
2023-05-20T06:43:47.585Z,36.65
2023-05-20T06:44:19.045Z,36.74
2023-05-20T06:44:50.544Z,36.80
2023-05-20T06:45:22.003Z,36.64
2023-05-20T06:45:53.484Z,36.76
2023-05-20T06:46:25.099Z,36.80
2023-05-20T06:46:56.640Z,36.83
2023-05-20T06:47:28.165Z,36.60
2023-05-20T06:47:59.614Z,36.69
2023-05-20T06:48:31.145Z,36.70